Flight Track Log - Related Links

Times and Time Zones

All times are in EDT time to prevent confusion due to time zone crossing. See the N132H flight status page for this flight to view local times or setup timezone preferences in your user account.

Time Position Orientation Groundspeed Altitude Reporting Facility
EDT Latitude Longitude Course Direction KTS MPH feet Rate Location/Type
Wed 09:21:15 AM 42.4500 -71.3167 216° Southwest 113 130 800  Level KA90
Wed 09:21:51 AM 42.4333 -71.3333 216° Southwest 99 114 1,400 938 Climbing KA90
Wed 09:22:51 AM 42.4167 -71.3500 216° Southwest 102 117 2,300 950 Climbing KA90
Wed 09:23:51 AM 42.3833 -71.3667 200° South 113 130 3,300 952 Climbing KA90
Wed 09:24:57 AM 42.3667 -71.3833 216° Southwest 95 109 4,300 952 Climbing KA90
Wed 09:25:57 AM 42.3333 -71.3833 180° South 98 113 5,300 789 Climbing KA90
Wed 09:26:51 AM 42.3167 -71.4167 236° Southwest 108 124 5,800 421 Climbing KA90
Wed 09:27:51 AM 42.3000 -71.4500 236° Southwest 117 135 6,100 157 Climbing KA90
Wed 09:28:46 AM 42.2756 -71.4917 232° Southwest 128 147 6,100  Level Boston Center
Wed 09:30:11 AM 42.2469 -71.5483 236° Southwest 129 148 6,100  Level Boston Center
Wed 09:31:12 AM 42.2242 -71.5850 230° Southwest 131 151 6,100  Level Boston Center
Wed 09:32:13 AM 42.2036 -71.6244 235° Southwest 130 150 6,100  Level Boston Center
Wed 09:33:08 AM 42.1936 -71.6667 252° West 127 146 6,100  Level Boston Center
Wed 09:34:08 AM 42.1814 -71.7117 250° West 128 147 6,100  Level Boston Center
Wed 09:35:09 AM 42.1711 -71.7594 254° West 129 148 6,100  Level Boston Center
Wed 09:36:10 AM 42.1589 -71.8072 251° West 128 147 6,100  Level Boston Center
Wed 09:37:11 AM 42.1447 -71.8464 244° Southwest 124 143 6,100  Level Boston Center
Wed 09:38:12 AM 42.1178 -71.8803 223° Southwest 129 148 6,100  Level Boston Center
Wed 09:39:12 AM 42.0908 -71.9114 221° Southwest 130 150 6,100  Level Boston Center
Wed 09:40:13 AM 42.0639 -71.9450 223° Southwest 131 151 6,100 -49 Level Boston Center
Wed 09:41:14 AM 42.0369 -71.9817 225° Southwest 130 150 6,000 -50 Descending Boston Center
Wed 09:42:14 AM 42.0142 -72.0181 230° Southwest 130 150 6,000  Level Boston Center
Wed 09:43:15 AM 41.9892 -72.0547 227° Southwest 131 151 6,000  Level Boston Center
Wed 09:44:16 AM 41.9642 -72.0911 227° Southwest 128 147 6,000  Level Boston Center
Wed 09:45:17 AM 41.9394 -72.1247 225° Southwest 130 150 6,000  Level Boston Center
Wed 09:46:18 AM 41.9167 -72.1667 234° Southwest 128 147 6,000  Level Boston Center
Wed 09:47:18 AM 41.8917 -72.2003 225° Southwest 129 148 6,000  Level Boston Center
Wed 09:48:19 AM 41.8667 -72.2339 225° Southwest 128 147 6,000  Level Boston Center
Wed 09:49:20 AM 41.8417 -72.2700 227° Southwest 127 146 6,000  Level Boston Center
Wed 09:50:20 AM 41.8147 -72.3064 225° Southwest 129 148 6,000  Level Boston Center
Wed 09:51:21 AM 41.7897 -72.3397 225° Southwest 129 148 6,000  Level Boston Center
Wed 09:52:22 AM 41.7669 -72.3761 230° Southwest 127 146 6,000  Level Boston Center
Wed 09:53:22 AM 41.7397 -72.4094 222° Southwest 130 150 6,000 -50 Level Boston Center
Wed 09:54:23 AM 41.7169 -72.4428 228° Southwest 128 147 5,900  Descending Boston Center
Wed 09:55:24 AM 41.6856 -72.4706 213° Southwest 132 152 6,000 50 Climbing Boston Center
Wed 09:56:24 AM 41.6500 -72.4872 199° South 133 153 6,000  Level Boston Center
Wed 09:57:25 AM 41.6147 -72.5039 199° South 133 153 6,000  Level Boston Center
Wed 09:59:58 AM 41.5333 -72.5500 203° Southwest 130 150 6,000  Level New York TRACON
Wed 10:00:52 AM 41.5000 -72.5667 201° Southwest 133 153 6,000  Level New York TRACON
Wed 10:01:52 AM 41.4833 -72.6000 236° Southwest 133 153 6,000  Level New York TRACON
Wed 10:02:52 AM 41.4500 -72.6500 228° Southwest 132 152 6,000  Level New York TRACON
Wed 10:03:52 AM 41.4333 -72.6833 236° Southwest 127 146 6,000  Level New York TRACON
Wed 10:04:52 AM 41.4167 -72.7167 236° Southwest 127 146 6,000  Level New York TRACON
Wed 10:05:52 AM 41.3833 -72.7500 217° Southwest 128 147 6,000  Level New York TRACON
Wed 10:06:52 AM 41.3667 -72.8000 246° West 127 146 6,000  Level New York TRACON
Wed 10:07:52 AM 41.3500 -72.8333 236° Southwest 128 147 6,000 -105 Level New York TRACON
Wed 10:08:46 AM 41.3333 -72.8667 236° Southwest 133 153 5,800 -421 Descending New York TRACON
Wed 10:09:46 AM 41.3000 -72.9000 217° Southwest 141 162 5,200 -571 Descending New York TRACON
Wed 10:10:52 AM 41.2667 -72.9500 228° Southwest 138 159 4,600 -524 Descending New York TRACON
Wed 10:11:52 AM 41.2500 -72.9833 236° Southwest 138 159 4,100 -316 Descending New York TRACON
Wed 10:12:46 AM 41.2333 -73.0167 236° Southwest 133 153 4,000  Descending New York TRACON
Wed 10:13:46 AM 41.2000 -73.0500 217° Southwest 127 146 4,100 50 Climbing New York TRACON
Wed 10:14:46 AM 41.1833 -73.0833 236° Southwest 131 151 4,100  Level New York TRACON
Wed 10:15:52 AM 41.1500 -73.1333 228° Southwest 129 148 4,100  Level New York TRACON
Wed 10:16:46 AM 41.1333 -73.1667 236° Southwest 129 148 4,100  Level New York TRACON
Wed 10:17:46 AM 41.1167 -73.2000 236° Southwest 128 147 4,100  Level New York TRACON
Wed 10:18:46 AM 41.1000 -73.2500 246° West 128 147 4,100 -53 Level New York TRACON
Wed 10:19:40 AM 41.0833 -73.2833 236° Southwest 130 150 4,000 -300 Descending New York TRACON
Wed 10:20:46 AM 41.0667 -73.3167 236° Southwest 138 159 3,500 -500 Descending New York TRACON
Wed 10:21:40 AM 41.0333 -73.3667 229° Southwest 142 163 3,000 -579 Descending New York TRACON
Wed 10:22:40 AM 41.0167 -73.4000 236° Southwest 146 168 2,400 -600 Descending New York TRACON

Login

Don't have an account? Register now (free) for customized features, flight alerts, and more!